createdAt,value
2023-04-22T00:01:46.975Z,8.70
2023-04-22T00:04:18.450Z,8.63
2023-04-22T00:06:52.072Z,9.40
2023-04-22T00:09:22.923Z,7.70
2023-04-22T00:11:55.029Z,8.15
2023-04-22T00:14:27.762Z,7.83
2023-04-22T00:16:59.104Z,10.05
2023-04-22T00:19:32.072Z,7.90
2023-04-22T00:22:03.031Z,10.28
2023-04-22T00:24:35.968Z,9.20
2023-04-22T00:27:08.872Z,8.18
2023-04-22T00:29:41.149Z,9.00
2023-04-22T00:32:12.061Z,9.00
2023-04-22T00:34:42.604Z,8.25
2023-04-22T00:37:13.193Z,7.92
2023-04-22T00:39:43.853Z,9.65
2023-04-22T00:42:15.666Z,7.78
2023-04-22T00:44:49.305Z,8.48
2023-04-22T00:47:21.361Z,7.28
2023-04-22T00:49:52.350Z,9.83
2023-04-22T00:52:22.908Z,7.85
2023-04-22T00:54:53.835Z,9.05
2023-04-22T00:57:25.019Z,7.90
2023-04-22T00:59:56.311Z,8.08
2023-04-22T01:02:27.012Z,7.92
2023-04-22T01:04:57.661Z,7.83
2023-04-22T01:07:28.689Z,7.95
2023-04-22T01:10:00.780Z,8.08
2023-04-22T01:12:31.505Z,9.38
2023-04-22T01:15:04.665Z,7.72
2023-04-22T01:17:35.000Z,8.35
2023-04-22T01:20:07.321Z,8.08
2023-04-22T01:22:40.440Z,7.55
2023-04-22T01:25:11.909Z,8.25
2023-04-22T01:27:43.702Z,11.48
2023-04-22T01:30:14.605Z,7.47
2023-04-22T01:32:46.457Z,9.50
2023-04-22T01:35:17.159Z,9.73
2023-04-22T01:37:47.965Z,9.35
2023-04-22T01:40:21.702Z,7.62
2023-04-22T01:42:53.298Z,8.43
2023-04-22T01:45:24.006Z,8.98
2023-04-22T01:47:59.281Z,11.97
2023-04-22T01:50:30.407Z,8.28
2023-04-22T01:53:02.849Z,9.30
2023-04-22T01:55:35.434Z,10.48
2023-04-22T01:58:08.053Z,8.40
2023-04-22T02:00:38.833Z,8.58
2023-04-22T02:03:09.418Z,9.93
2023-04-22T02:05:40.588Z,10.93
2023-04-22T02:08:11.181Z,10.75
2023-04-22T02:10:43.487Z,8.83
2023-04-22T02:13:13.916Z,10.93
2023-04-22T02:15:44.717Z,8.35
2023-04-22T02:18:16.888Z,8.30
2023-04-22T02:20:48.073Z,8.90
2023-04-22T02:23:18.816Z,7.85
2023-04-22T02:25:53.660Z,9.48
2023-04-22T02:28:24.225Z,8.00
2023-04-22T02:30:54.881Z,8.80
2023-04-22T02:33:26.006Z,9.15
2023-04-22T02:35:56.638Z,8.15
2023-04-22T02:38:27.304Z,9.20
2023-04-22T02:40:58.002Z,8.90
2023-04-22T02:43:28.953Z,8.50
2023-04-22T02:46:00.942Z,7.97
2023-04-22T02:48:32.239Z,8.20
2023-04-22T02:51:04.359Z,8.53
2023-04-22T02:53:35.158Z,8.28
2023-04-22T02:56:07.322Z,8.78
2023-04-22T02:58:44.169Z,9.33
2023-04-22T03:01:15.095Z,8.25
2023-04-22T03:03:46.664Z,9.08
2023-04-22T03:06:17.944Z,9.40
2023-04-22T03:08:48.534Z,8.95
2023-04-22T03:11:19.398Z,8.98
2023-04-22T03:13:52.849Z,10.08
2023-04-22T03:16:26.819Z,9.35
2023-04-22T03:18:59.332Z,10.03
2023-04-22T03:21:31.982Z,11.85
2023-04-22T03:24:03.116Z,8.73
2023-04-22T03:26:33.847Z,8.95
2023-04-22T03:29:04.387Z,9.10
2023-04-22T03:31:34.985Z,10.10
2023-04-22T03:34:07.036Z,9.43
2023-04-22T03:36:38.361Z,10.48
2023-04-22T03:39:08.904Z,9.05
2023-04-22T03:41:40.118Z,9.28
2023-04-22T03:44:10.786Z,9.90
2023-04-22T03:46:43.500Z,11.88
2023-04-22T03:49:15.820Z,9.53
2023-04-22T03:51:46.308Z,10.32
2023-04-22T03:54:17.003Z,11.12
2023-04-22T03:56:47.939Z,9.73
2023-04-22T03:59:19.290Z,11.48
2023-04-22T04:01:53.508Z,9.90
2023-04-22T04:04:24.833Z,10.45
2023-04-22T04:06:59.208Z,11.08
2023-04-22T04:09:29.946Z,9.65
2023-04-22T04:12:01.269Z,12.25
2023-04-22T04:14:31.811Z,10.40
2023-04-22T04:17:03.767Z,9.73
2023-04-22T04:19:38.045Z,9.83
2023-04-22T04:22:11.091Z,9.20
2023-04-22T04:24:42.090Z,11.57
2023-04-22T04:27:13.886Z,9.68
2023-04-22T04:29:45.074Z,9.75
2023-04-22T04:32:15.628Z,11.20
2023-04-22T04:34:46.105Z,10.45
2023-04-22T04:37:16.842Z,10.65
2023-04-22T04:39:48.514Z,12.05
2023-04-22T04:42:19.983Z,10.48
2023-04-22T04:44:51.500Z,11.35
2023-04-22T04:47:24.405Z,9.73
2023-04-22T04:49:55.046Z,11.55
2023-04-22T04:52:27.409Z,10.82
2023-04-22T04:54:59.635Z,11.03
2023-04-22T04:57:30.180Z,11.50
2023-04-22T05:00:01.513Z,10.70
2023-04-22T05:02:32.318Z,13.00
2023-04-22T05:05:03.269Z,12.03
2023-04-22T05:07:34.923Z,10.27
2023-04-22T05:10:05.877Z,11.50
2023-04-22T05:12:36.407Z,12.28
2023-04-22T05:15:09.238Z,11.80
2023-04-22T05:17:40.487Z,13.98
2023-04-22T05:20:11.635Z,9.93
2023-04-22T05:22:43.256Z,10.50
2023-04-22T05:25:14.919Z,11.03
2023-04-22T05:27:48.201Z,10.55
2023-04-22T05:30:18.008Z,10.00
2023-04-22T05:32:51.173Z,10.43
2023-04-22T05:35:23.455Z,10.55
2023-04-22T05:37:54.031Z,32.73
2023-04-22T05:40:24.663Z,11.73
2023-04-22T05:42:56.614Z,10.68
2023-04-22T05:45:27.129Z,12.60
2023-04-22T05:47:57.714Z,12.82
2023-04-22T05:50:29.285Z,16.23
2023-04-22T05:52:59.837Z,10.72
2023-04-22T05:55:30.507Z,11.63
2023-04-22T05:58:01.173Z,10.58
2023-04-22T06:00:31.786Z,10.95
2023-04-22T06:03:02.274Z,10.78
2023-04-22T06:05:33.647Z,11.43
2023-04-22T06:08:04.366Z,10.48
2023-04-22T06:10:34.748Z,11.55
2023-04-22T06:13:05.744Z,10.40
2023-04-22T06:15:36.311Z,11.10
2023-04-22T06:18:07.078Z,12.23
2023-04-22T06:20:38.287Z,11.55
2023-04-22T06:23:09.200Z,10.93
2023-04-22T06:25:40.098Z,12.13
2023-04-22T06:28:11.199Z,10.70
2023-04-22T06:30:42.153Z,10.80
2023-04-22T06:33:13.786Z,11.30
2023-04-22T06:35:44.454Z,12.58
2023-04-22T06:38:15.077Z,11.22
2023-04-22T06:40:45.658Z,12.15
2023-04-22T06:43:17.825Z,11.30
2023-04-22T06:45:48.360Z,25.52
2023-04-22T06:48:18.992Z,13.32
2023-04-22T06:50:49.388Z,12.82
2023-04-22T06:53:20.018Z,11.18
2023-04-22T06:55:51.496Z,15.32
2023-04-22T06:58:22.780Z,13.62
2023-04-22T07:00:53.254Z,12.58
2023-04-22T07:03:23.977Z,11.28
2023-04-22T07:05:54.999Z,15.23
2023-04-22T07:08:25.513Z,11.53
2023-04-22T07:10:57.808Z,11.22
2023-04-22T07:13:29.495Z,12.53
2023-04-22T07:16:01.298Z,11.88
2023-04-22T07:18:32.119Z,10.95
2023-04-22T07:21:02.784Z,10.32
2023-04-22T07:23:33.128Z,11.57
2023-04-22T07:26:04.075Z,11.28
2023-04-22T07:28:36.456Z,10.18
2023-04-22T07:31:06.912Z,11.03
2023-04-22T07:33:37.357Z,10.03
2023-04-22T07:36:09.635Z,11.33
2023-04-22T07:38:40.260Z,11.85
2023-04-22T07:41:11.049Z,11.43
2023-04-22T07:43:41.682Z,10.50
2023-04-22T07:46:12.488Z,12.43
2023-04-22T07:48:43.505Z,10.85
2023-04-22T07:51:13.950Z,13.35
2023-04-22T07:53:44.462Z,10.95
2023-04-22T07:56:15.357Z,12.70
2023-04-22T07:58:45.890Z,11.12
2023-04-22T08:01:18.729Z,11.33
2023-04-22T08:03:48.743Z,11.28
2023-04-22T08:06:19.769Z,10.48
2023-04-22T08:08:50.291Z,11.35
2023-04-22T08:11:20.986Z,11.38
2023-04-22T08:13:51.823Z,14.15
2023-04-22T08:19:10.233Z,10.40
2023-04-22T08:21:40.765Z,12.90
2023-04-22T08:24:13.286Z,10.13
2023-04-22T08:26:43.813Z,11.10
2023-04-22T08:29:14.473Z,10.75
2023-04-22T08:31:45.172Z,12.35
2023-04-22T08:34:15.965Z,9.58
2023-04-22T08:36:46.573Z,11.97
2023-04-22T08:39:18.308Z,10.10
2023-04-22T08:41:51.373Z,9.53
2023-04-22T08:44:25.153Z,10.58
2023-04-22T08:46:56.681Z,9.90
2023-04-22T08:49:29.839Z,12.50
2023-04-22T08:52:00.327Z,11.20
2023-04-22T08:54:32.578Z,10.38
2023-04-22T08:57:04.806Z,8.68
2023-04-22T08:59:36.857Z,11.28
2023-04-22T09:02:10.525Z,8.85
2023-04-22T09:04:43.372Z,10.30
2023-04-22T09:07:19.970Z,9.65
2023-04-22T09:09:51.030Z,11.22
2023-04-22T09:12:21.560Z,8.28
2023-04-22T09:14:54.518Z,9.80
2023-04-22T09:17:39.140Z,13.15
2023-04-22T09:20:12.238Z,9.33
2023-04-22T09:22:47.743Z,9.25
2023-04-22T09:25:23.951Z,9.98
2023-04-22T09:27:59.751Z,9.55
2023-04-22T09:30:37.366Z,8.93
2023-04-22T09:33:08.780Z,9.63
2023-04-22T09:35:41.937Z,7.70
2023-04-22T09:38:13.756Z,9.60
2023-04-22T09:40:45.344Z,8.28
2023-04-22T09:43:19.252Z,9.33
2023-04-22T09:45:50.236Z,11.10
2023-04-22T09:48:21.100Z,8.50
2023-04-22T09:50:52.825Z,10.90
2023-04-22T09:53:23.724Z,8.13
2023-04-22T09:55:55.912Z,12.95
2023-04-22T09:58:28.074Z,9.40
2023-04-22T10:00:59.578Z,8.83
2023-04-22T10:03:30.813Z,9.48
2023-04-22T10:06:01.416Z,12.53
2023-04-22T10:08:33.379Z,10.13
2023-04-22T10:11:04.303Z,7.22
2023-04-22T10:13:36.405Z,9.70
2023-04-22T10:16:07.649Z,7.47
2023-04-22T10:18:40.597Z,7.20
2023-04-22T10:21:11.342Z,7.20
2023-04-22T10:23:44.958Z,6.87
2023-04-22T10:26:35.555Z,8.23
2023-04-22T10:29:09.380Z,6.92
2023-04-22T10:31:40.204Z,10.38
2023-04-22T10:34:15.621Z,7.10
2023-04-22T10:37:00.349Z,7.67
2023-04-22T10:39:31.159Z,8.55
2023-04-22T10:42:12.773Z,7.08
2023-04-22T10:44:54.688Z,9.10
2023-04-22T10:47:36.632Z,7.17
2023-04-22T10:50:16.578Z,9.68
2023-04-22T10:52:50.690Z,7.85
2023-04-22T10:55:21.755Z,8.83
2023-04-22T10:57:53.461Z,8.63
2023-04-22T11:00:52.520Z,8.58
2023-04-22T11:03:16.491Z,7.33
2023-04-22T11:05:47.418Z,8.35
2023-04-22T11:08:23.715Z,7.35
2023-04-22T11:10:56.054Z,6.92
2023-04-22T11:13:27.128Z,6.60
2023-04-22T11:15:58.953Z,6.20
2023-04-22T11:18:29.688Z,7.42
2023-04-22T11:21:07.441Z,8.90
2023-04-22T11:23:38.103Z,7.22
2023-04-22T11:26:11.158Z,9.03
2023-04-22T11:28:49.602Z,8.10
2023-04-22T11:31:22.032Z,7.70
2023-04-22T11:33:54.315Z,8.00
2023-04-22T11:36:24.852Z,8.78
2023-04-22T11:38:58.512Z,6.97
2023-04-22T11:41:31.281Z,8.38
2023-04-22T11:44:02.261Z,6.78
2023-04-22T11:46:34.849Z,7.10
2023-04-22T11:49:18.642Z,7.17
2023-04-22T11:51:56.790Z,6.47
2023-04-22T11:54:38.832Z,6.95
2023-04-22T11:57:11.916Z,10.15
2023-04-22T11:59:44.334Z,7.97
2023-04-22T12:02:14.884Z,7.53
2023-04-22T12:04:45.759Z,7.30
2023-04-22T12:07:16.796Z,8.48
2023-04-22T12:09:47.773Z,6.97
2023-04-22T12:12:18.826Z,6.97
2023-04-22T12:14:50.945Z,7.55
2023-04-22T12:17:26.162Z,7.65
2023-04-22T12:19:57.190Z,7.17
2023-04-22T12:22:30.375Z,6.40
2023-04-22T12:25:05.695Z,6.20
2023-04-22T12:27:37.072Z,7.55
2023-04-22T12:30:08.615Z,7.17
2023-04-22T12:32:40.786Z,6.83
2023-04-22T12:35:17.328Z,7.35
2023-04-22T12:37:44.666Z,10.15
2023-04-22T12:40:16.621Z,6.87
2023-04-22T12:42:47.507Z,7.75
2023-04-22T12:45:18.871Z,6.47
2023-04-22T12:47:53.676Z,6.65
2023-04-22T12:50:27.336Z,5.97
2023-04-22T12:52:59.183Z,7.35
2023-04-22T12:55:30.553Z,7.28
2023-04-22T12:58:01.157Z,7.50
2023-04-22T13:00:33.439Z,8.65
2023-04-22T13:03:04.764Z,8.60
2023-04-22T13:05:36.776Z,6.87
2023-04-22T13:08:08.178Z,7.17
2023-04-22T13:10:39.056Z,9.90
2023-04-22T13:13:18.236Z,7.42
2023-04-22T13:15:42.916Z,8.50
2023-04-22T13:18:18.907Z,7.10
2023-04-22T13:20:51.213Z,7.17
2023-04-22T13:23:23.358Z,6.60
2023-04-22T13:25:57.703Z,7.22
2023-04-22T13:28:28.997Z,9.58
2023-04-22T13:31:00.044Z,9.28
2023-04-22T13:33:31.734Z,7.62
2023-04-22T13:36:02.420Z,7.25
2023-04-22T13:38:32.981Z,7.30
2023-04-22T13:41:04.266Z,7.90
2023-04-22T13:43:35.270Z,8.03
2023-04-22T13:46:07.673Z,9.50
2023-04-22T13:48:38.342Z,7.50
2023-04-22T13:51:09.742Z,8.38
2023-04-22T13:53:41.210Z,8.15
2023-04-22T13:56:13.611Z,7.22
2023-04-22T13:58:47.310Z,8.58
2023-04-22T14:01:19.327Z,7.95
2023-04-22T14:03:51.946Z,7.60
2023-04-22T14:06:23.224Z,9.23
2023-04-22T14:08:53.911Z,8.20
2023-04-22T14:11:25.626Z,7.60
2023-04-22T14:13:56.090Z,7.47
2023-04-22T14:16:26.751Z,8.38
2023-04-22T14:18:59.757Z,7.75
2023-04-22T14:21:31.296Z,7.60
2023-04-22T14:24:01.985Z,8.70
2023-04-22T14:26:34.373Z,7.47
2023-04-22T14:29:06.354Z,7.55
2023-04-22T14:31:36.923Z,7.25
2023-04-22T14:34:08.475Z,10.72
2023-04-22T14:36:39.893Z,8.95
2023-04-22T14:39:10.439Z,10.43
2023-04-22T14:41:41.980Z,9.50
2023-04-22T14:44:13.835Z,8.63
2023-04-22T14:46:45.666Z,7.05
2023-04-22T14:49:17.284Z,8.65
2023-04-22T14:51:49.049Z,7.00
2023-04-22T14:54:22.909Z,7.83
2023-04-22T14:56:55.612Z,7.60
2023-04-22T14:59:26.259Z,8.43
2023-04-22T15:01:57.197Z,7.05
2023-04-22T15:04:28.528Z,6.62
2023-04-22T15:07:00.202Z,7.42
2023-04-22T15:09:30.937Z,8.08
2023-04-22T15:12:04.377Z,6.90
2023-04-22T15:14:36.161Z,6.95
2023-04-22T15:17:07.688Z,6.70
2023-04-22T15:19:40.141Z,7.33
2023-04-22T15:22:12.703Z,8.25
2023-04-22T15:24:44.067Z,8.18
2023-04-22T15:27:14.990Z,7.20
2023-04-22T15:29:46.487Z,7.00
2023-04-22T15:32:19.753Z,7.05
2023-04-22T15:34:51.511Z,9.45
2023-04-22T15:37:24.498Z,6.45
2023-04-22T15:39:55.137Z,7.30
2023-04-22T15:42:27.605Z,8.70
2023-04-22T15:44:58.059Z,6.80
2023-04-22T15:47:29.909Z,6.70
2023-04-22T15:50:04.017Z,6.72
2023-04-22T15:52:35.159Z,7.08
2023-04-22T15:55:08.156Z,8.73
2023-04-22T15:57:38.634Z,7.92
2023-04-22T16:00:13.849Z,6.92
2023-04-22T16:02:46.856Z,7.12
2023-04-22T16:05:20.525Z,7.12
2023-04-22T16:07:54.094Z,6.60
2023-04-22T16:10:29.539Z,11.40
2023-04-22T16:13:01.033Z,7.70
2023-04-22T16:15:31.585Z,6.45
2023-04-22T16:18:02.598Z,7.67
2023-04-22T16:20:35.137Z,8.08
2023-04-22T16:23:05.645Z,7.40
2023-04-22T16:25:37.888Z,6.50
2023-04-22T16:28:10.351Z,6.05
2023-04-22T16:30:41.182Z,5.95
2023-04-22T16:33:12.561Z,6.75
2023-04-22T16:35:44.445Z,6.33
2023-04-22T16:38:15.087Z,6.30
2023-04-22T16:40:47.383Z,6.58
2023-04-22T16:43:18.783Z,6.45
2023-04-22T16:45:51.211Z,7.17
2023-04-22T16:48:24.278Z,8.33
2023-04-22T16:50:56.052Z,6.53
2023-04-22T16:53:27.468Z,6.65
2023-04-22T16:56:14.128Z,7.08
2023-04-22T16:58:46.573Z,5.87
2023-04-22T17:01:18.425Z,6.30
2023-04-22T17:03:49.292Z,7.65
2023-04-22T17:06:22.881Z,8.25
2023-04-22T17:08:56.889Z,6.62
2023-04-22T17:11:29.462Z,7.60
2023-04-22T17:14:00.658Z,9.15
2023-04-22T17:16:32.729Z,8.63
2023-04-22T17:19:03.421Z,8.00
2023-04-22T17:21:37.634Z,8.38
2023-04-22T17:24:08.737Z,7.97
2023-04-22T17:26:40.976Z,7.20
2023-04-22T17:29:11.527Z,9.03
2023-04-22T17:31:42.073Z,7.65
2023-04-22T17:34:13.775Z,7.22
2023-04-22T17:36:44.321Z,7.65
2023-04-22T17:39:16.772Z,6.75
2023-04-22T17:41:47.297Z,6.55
2023-04-22T17:44:18.577Z,7.22
2023-04-22T17:46:49.055Z,7.60
2023-04-22T17:49:20.194Z,7.55
2023-04-22T17:51:50.958Z,7.80
2023-04-22T17:54:21.786Z,10.20
2023-04-22T17:56:52.246Z,8.53
2023-04-22T17:59:24.257Z,7.58
2023-04-22T18:01:54.770Z,8.20
2023-04-22T18:04:27.110Z,10.28
2023-04-22T18:06:59.145Z,9.68
2023-04-22T18:09:30.597Z,9.55
2023-04-22T18:12:01.739Z,10.35
2023-04-22T18:14:32.287Z,10.72
2023-04-22T18:17:04.566Z,10.23
2023-04-22T18:19:36.393Z,9.65
2023-04-22T18:22:06.974Z,9.65
2023-04-22T18:24:38.592Z,9.18
2023-04-22T18:27:09.634Z,11.28
2023-04-22T18:29:40.592Z,9.98
2023-04-22T18:32:11.749Z,8.90
2023-04-22T18:34:42.788Z,9.38
2023-04-22T18:37:14.319Z,9.73
2023-04-22T18:39:46.622Z,9.78
2023-04-22T18:42:18.594Z,9.85
2023-04-22T18:44:55.035Z,10.40
2023-04-22T18:47:26.462Z,9.45
2023-04-22T18:49:57.979Z,10.82
2023-04-22T18:52:28.587Z,40.88
2023-04-22T18:54:59.662Z,18.87
2023-04-22T18:57:30.750Z,11.78
2023-04-22T19:00:02.153Z,11.88
2023-04-22T19:02:37.289Z,10.80
2023-04-22T19:05:06.876Z,11.75
2023-04-22T19:07:38.431Z,11.05
2023-04-22T19:10:10.572Z,12.58
2023-04-22T19:12:41.961Z,12.63
2023-04-22T19:15:13.435Z,10.18
2023-04-22T19:17:49.122Z,11.73
2023-04-22T19:20:19.887Z,11.38
2023-04-22T19:22:53.669Z,11.57
2023-04-22T19:25:24.549Z,11.63
2023-04-22T19:27:55.063Z,12.75
2023-04-22T19:30:27.800Z,12.58
2023-04-22T19:32:58.570Z,11.50
2023-04-22T19:35:29.285Z,11.95
2023-04-22T19:38:02.471Z,12.28
2023-04-22T19:40:35.616Z,12.68
2023-04-22T19:43:10.317Z,12.13
2023-04-22T19:45:41.166Z,13.15
2023-04-22T19:48:12.192Z,12.60
2023-04-22T19:50:46.146Z,14.53
2023-04-22T19:53:18.525Z,12.05
2023-04-22T19:55:50.981Z,11.35
2023-04-22T19:58:25.371Z,12.15
2023-04-22T20:00:56.843Z,12.40
2023-04-22T20:03:28.130Z,13.38
2023-04-22T20:05:58.873Z,12.00
2023-04-22T20:08:29.839Z,11.73
2023-04-22T20:11:04.181Z,13.98
2023-04-22T20:13:37.269Z,13.95
2023-04-22T20:16:08.708Z,12.93
2023-04-22T20:18:41.283Z,14.07
2023-04-22T20:21:13.691Z,12.60
2023-04-22T20:23:46.106Z,13.08
2023-04-22T20:26:20.162Z,13.68
2023-04-22T20:28:55.284Z,13.72
2023-04-22T20:31:30.683Z,14.38
2023-04-22T20:33:58.279Z,13.98
2023-04-22T20:36:30.776Z,16.25
2023-04-22T20:39:06.709Z,14.90
2023-04-22T20:41:40.448Z,14.40
2023-04-22T20:44:10.943Z,14.70
2023-04-22T20:46:43.830Z,18.37
2023-04-22T20:49:16.584Z,15.50
2023-04-22T20:51:47.314Z,14.65
2023-04-22T20:54:28.441Z,14.75
2023-04-22T20:56:50.664Z,14.23
2023-04-22T20:59:21.235Z,15.20
2023-04-22T21:01:54.866Z,19.67
2023-04-22T21:04:26.637Z,14.65
2023-04-22T21:06:58.367Z,14.63
2023-04-22T21:09:34.320Z,14.18
2023-04-22T21:12:04.619Z,13.65
2023-04-22T21:14:36.700Z,14.38
2023-04-22T21:17:21.729Z,14.68
2023-04-22T21:19:56.221Z,14.43
2023-04-22T21:22:27.436Z,14.63
2023-04-22T21:24:59.324Z,13.60
2023-04-22T21:27:31.448Z,13.98
2023-04-22T21:30:02.893Z,15.95
2023-04-22T21:32:37.058Z,15.53
2023-04-22T21:35:08.443Z,14.58
2023-04-22T21:37:40.301Z,14.18
2023-04-22T21:40:13.788Z,14.20
2023-04-22T21:42:45.498Z,14.98
2023-04-22T21:45:16.384Z,14.73
2023-04-22T21:47:47.835Z,14.33
2023-04-22T21:50:20.892Z,14.63
2023-04-22T21:52:53.594Z,14.40
2023-04-22T21:55:24.230Z,13.78
2023-04-22T21:57:57.558Z,13.53
2023-04-22T22:00:28.201Z,14.98
2023-04-22T22:02:59.053Z,12.70
2023-04-22T22:05:30.125Z,14.90
2023-04-22T22:08:01.249Z,14.00
2023-04-22T22:10:31.914Z,13.30
2023-04-22T22:13:02.571Z,14.00
2023-04-22T22:15:33.050Z,12.75
2023-04-22T22:18:04.923Z,12.45
2023-04-22T22:20:36.559Z,12.63
2023-04-22T22:23:08.528Z,13.38
2023-04-22T22:25:39.074Z,12.07
2023-04-22T22:28:10.838Z,12.98
2023-04-22T22:30:41.430Z,11.75
2023-04-22T22:33:12.119Z,12.43
2023-04-22T22:35:42.794Z,12.13
2023-04-22T22:38:13.400Z,12.33
2023-04-22T22:40:44.092Z,11.73
2023-04-22T22:43:15.014Z,12.05
2023-04-22T22:45:47.916Z,11.95
2023-04-22T22:48:18.718Z,11.53
2023-04-22T22:50:50.006Z,12.55
2023-04-22T22:53:21.660Z,12.70
2023-04-22T22:55:53.789Z,11.85
2023-04-22T22:58:26.499Z,10.88
2023-04-22T23:00:58.235Z,10.98
2023-04-22T23:03:29.009Z,11.22
2023-04-22T23:05:59.918Z,11.75
2023-04-22T23:08:31.420Z,10.88
2023-04-22T23:11:03.246Z,11.50
2023-04-22T23:13:34.764Z,11.33
2023-04-22T23:16:05.492Z,10.90
2023-04-22T23:18:37.957Z,11.03
2023-04-22T23:21:10.152Z,11.93
2023-04-22T23:23:42.118Z,11.45
2023-04-22T23:26:13.316Z,10.98
2023-04-22T23:28:44.118Z,10.53
2023-04-22T23:31:17.315Z,11.48
2023-04-22T23:33:50.855Z,10.72
2023-04-22T23:36:23.463Z,11.03
2023-04-22T23:38:57.778Z,12.00
2023-04-22T23:41:27.335Z,9.95
2023-04-22T23:43:57.951Z,12.63
2023-04-22T23:46:28.788Z,12.73
2023-04-22T23:49:01.459Z,12.98
2023-04-22T23:51:35.741Z,11.35
2023-04-22T23:54:06.634Z,12.20
2023-04-22T23:56:37.752Z,10.28
2023-04-22T23:59:08.559Z,11.88
